Latest Weather Observations for Newdegate

IDW60801

Issued at 8:32 am WST Monday 22 December 2014 (issued every 30 minutes, with the page automatically refreshed every 10 minutes)

About weather observations | Map of weather stations | Latest weather observations for WA | Other Formats
Station Details ID: 010692 Name: NEWDEGATE RESEARCH STATION Lat: -33.11 Lon: 118.84 Height: 320.0 m
Data from the previous 72 hours. | See also: Recent months at Newdegate
Date/Time
WST
Temp
°C
App
Temp
°C
Dew
Point
Rel
Hum
%
Delta-T
°C
Wind Press
QNH
hPa
Press
MSL
hPa
Rain
since 9 am
mm
Dir
 
Spd
km/h
Gust
km/h
Spd
kts
Gust
kts
22/08:30am 18.0 15.7 10.6 62 4.0 E 13 19 7 10 1019.0 1017.8 0.0
22/08:00am 17.5 15.7 12.0 70 3.1 ESE 13 19 7 10 1019.0 1017.8 0.0
22/07:30am 15.6 13.9 12.4 81 1.8 SE 13 19 7 10 1019.1 1017.9 0.0
22/07:00am 14.4 11.9 12.4 88 1.1 SE 17 19 9 10 1019.0 1017.8 0.0
22/06:30am 14.1 12.0 12.5 90 0.9 SE 15 17 8 9 1018.7 1017.6 0.0
22/06:00am 13.8 12.0 12.2 90 0.9 SE 13 19 7 10 1018.5 1017.4 0.0
22/05:30am 13.5 12.0 11.9 90 0.9 SE 11 17 6 9 1018.1 1017.0 0.0
22/05:00am 13.6 12.1 12.0 90 0.9 SE 11 13 6 7 1017.9 1016.8 0.0
22/04:30am 13.6 12.5 12.0 90 0.9 SE 9 13 5 7 1017.5 1016.4 0.0
22/04:00am 13.6 12.1 12.0 90 0.9 SSE 11 15 6 8 1017.5 1016.4 0.0
22/03:30am 13.7 12.2 11.9 89 1.0 SE 11 15 6 8 1017.3 1016.1 0.0
22/03:00am 13.8 12.2 11.7 87 1.1 SE 11 19 6 10 1017.3 1016.1 0.0
22/02:30am 13.9 11.9 11.4 85 1.4 SE 13 19 7 10 1017.4 1016.3 0.0
22/02:00am 14.0 12.4 11.5 85 1.4 SE 11 17 6 9 1017.5 1016.4 0.0
22/01:30am 13.9 11.8 11.2 84 1.5 SSE 13 19 7 10 1017.7 1016.6 0.0
22/01:00am 14.2 11.7 11.2 82 1.6 SE 15 22 8 12 1018.0 1016.9 0.0
22/12:30am 14.3 11.1 11.3 82 1.6 SE 19 24 10 13 1018.1 1017.0 0.0
22/12:00am 14.1 11.3 11.4 84 1.5 SSE 17 22 9 12 1018.4 1017.3 0.0
 
Date/Time
WST
Temp
°C
App
Temp
°C
Dew
Point
Rel
Hum
%
Delta-T
°C
Wind Press
QNH
hPa
Press
MSL
hPa
Rain
since 9 am
mm
Dir
 
Spd
km/h
Gust
km/h
Spd
kts
Gust
kts
21/11:30pm 13.9 10.7 11.4 85 1.4 SE 19 26 10 14 1018.7 1017.6 0.0
21/11:00pm 13.9 10.5 11.2 84 1.5 SE 20 24 11 13 1019.0 1017.8 0.0
21/10:30pm 14.3 11.3 11.8 85 1.4 SSE 19 24 10 13 1019.3 1018.1 0.0
21/10:00pm 14.3 11.1 12.0 86 1.3 SSE 20 28 11 15 1019.3 1018.1 0.0
21/09:30pm 14.5 11.3 12.0 85 1.4 SSE 20 26 11 14 1019.4 1018.2 0.0
21/09:00pm 15.4 12.4 12.0 80 1.9 SSE 19 26 10 14 1019.2 1018.0 0.0
21/08:30pm 15.6 12.6 12.0 79 2.0 SSE 19 24 10 13 1019.2 1018.0 0.0
21/08:00pm 15.7 12.6 12.1 79 2.0 SSE 20 26 11 14 1018.7 1017.6 0.0
21/07:30pm 16.3 12.4 12.1 76 2.3 SSE 24 32 13 17 1018.3 1017.2 0.0
21/07:00pm 16.6 13.1 12.2 75 2.4 SSE 22 32 12 17 1018.0 1016.9 0.0
21/06:30pm 17.2 13.7 12.3 73 2.7 SSE 22 33 12 18 1017.9 1016.8 0.0
21/06:00pm 18.2 14.8 12.6 70 3.2 SSE 22 32 12 17 1017.5 1016.4 0.0
21/05:30pm 18.3 13.8 12.5 69 3.3 SSE 28 37 15 20 1017.4 1016.3 0.0
21/05:00pm 18.7 14.5 12.5 67 3.5 SSE 26 35 14 19 1017.1 1015.9 0.0
21/04:30pm 19.9 16.5 12.4 62 4.3 SSE 22 30 12 16 1016.9 1015.7 0.0
21/04:00pm 20.4 16.3 12.6 61 4.5 SE 26 37 14 20 1016.8 1015.6 0.0
21/03:30pm 20.0 15.9 12.7 63 4.2 SSE 26 32 14 17 1016.9 1015.7 0.0
21/03:00pm 20.6 16.1 12.6 60 4.6 SSE 28 39 15 21 1017.0 1015.8 0.0
21/02:30pm 19.5 14.3 12.8 65 3.8 SSE 32 43 17 23 1017.1 1015.9 0.0
21/02:00pm 21.1 17.0 12.8 59 4.8 SSE 26 33 14 18 1017.0 1015.8 0.0
21/01:30pm 20.0 16.2 13.7 67 3.7 SE 26 33 14 18 1017.2 1016.0 0.0
21/01:00pm 20.5 16.2 13.2 63 4.2 SSE 28 35 15 19 1017.2 1016.0 0.0
21/12:30pm 20.3 16.2 13.7 66 3.8 SSE 28 39 15 21 1017.3 1016.1 0.0
21/12:00pm 18.7 14.0 13.3 71 3.1 SSE 30 39 16 21 1017.6 1016.5 0.0
21/11:30am 19.4 15.0 12.9 66 3.7 SSE 28 39 15 21 1017.5 1016.4 0.0
21/11:00am 18.9 14.9 13.1 69 3.3 SSE 26 37 14 20 1017.7 1016.6 0.0
21/10:30am 18.3 13.6 13.2 72 2.9 SE 30 43 16 23 1017.7 1016.6 0.0
21/10:00am 18.1 13.6 13.8 76 2.5 SE 30 41 16 22 1017.8 1016.7 0.0
21/09:30am 16.6 14.2 14.4 87 1.3 S 20 28 11 15 1017.7 1016.6 0.0
21/09:00am 15.5 12.9 13.7 89 1.0 SSE 20 26 11 14 1018.0 1016.9 0.2
21/08:30am 15.3 12.5 13.3 88 1.1 SSE 20 30 11 16 1017.8 1016.7 0.2
21/08:00am 15.0 11.4 12.9 87 1.2 SSE 24 35 13 19 1017.7 1016.6 0.2
21/07:30am 15.3 11.8 12.2 82 1.7 SSE 22 33 12 18 1017.3 1016.1 0.2
21/07:00am 15.5 11.7 12.3 81 1.8 SSE 24 35 13 19 1017.0 1015.8 0.2
21/06:30am 15.3 10.6 12.1 81 1.8 SSE 28 39 15 21 1016.8 1015.6 0.2
21/06:00am 15.1 10.1 12.1 82 1.7 SSE 30 41 16 22 1016.3 1015.1 0.2
21/05:30am 14.8 9.3 11.9 83 1.6 SSE 32 43 17 23 1015.9 1014.7 0.2
21/05:00am 14.8 9.4 12.1 84 1.5 SSE 32 43 17 23 1015.3 1014.2 0.2
21/04:30am 14.8 9.4 12.3 85 1.4 S 32 43 17 23 1014.9 1013.8 0.2
21/04:00am 14.8 8.4 12.1 84 1.5 S 37 48 20 26 1014.4 1013.2 0.2
21/03:30am 14.5 8.9 12.0 85 1.4 S 33 50 18 27 1014.4 1013.2 0.2
21/03:00am 14.4 9.7 12.1 86 1.3 S 28 39 15 21 1014.5 1013.3 0.2
21/02:30am 14.4 9.5 12.4 88 1.1 S 30 44 16 24 1014.2 1013.0 0.2
21/02:01am 14.5 9.9 12.4 87 1.2 S 28 46 15 25 1014.3 1013.1 0.2
21/02:00am 14.6 10.1 12.5 87 1.2 S 28 39 15 21 1014.3 1013.1 0.2
21/01:30am 14.7 9.8 12.6 87 1.2 S 30 41 16 22 1014.5 1013.3 0.2
21/01:00am 14.7 9.8 12.7 88 1.1 S 30 43 16 23 1014.5 1013.3 0.2
21/12:30am 14.7 9.8 12.7 88 1.1 S 30 41 16 22 1014.4 1013.2 0.2
21/12:00am 14.7 9.9 12.9 89 1.0 S 30 43 16 23 1014.4 1013.2 0.2
 
Date/Time
WST
Temp
°C
App
Temp
°C
Dew
Point
Rel
Hum
%
Delta-T
°C
Wind Press
QNH
hPa
Press
MSL
hPa
Rain
since 9 am
mm
Dir
 
Spd
km/h
Gust
km/h
Spd
kts
Gust
kts
20/11:30pm 14.5 9.7 12.9 90 0.9 S 30 41 16 22 1014.3 1013.1 0.2
20/11:00pm 14.9 10.2 13.3 90 0.9 SSW 30 41 16 22 1014.1 1012.9 0.2
20/10:30pm 15.0 10.3 13.2 89 1.0 SSW 30 43 16 23 1014.1 1012.9 0.0
20/10:00pm 15.4 11.2 13.4 88 1.1 SSW 28 39 15 21 1014.1 1012.9 0.0
20/09:30pm 15.8 11.8 14.0 89 1.0 S 28 39 15 21 1013.8 1012.6 0.0
20/09:00pm 16.1 12.8 14.1 88 1.2 S 24 35 13 19 1013.5 1012.3 0.0
20/08:30pm 16.1 13.6 14.1 88 1.2 S 20 28 11 15 1013.3 1012.1 0.0
20/08:00pm 16.6 13.4 14.2 86 1.4 S 24 35 13 19 1013.1 1011.9 0.0
20/07:30pm 16.8 12.7 13.9 83 1.7 S 28 37 15 20 1012.8 1011.6 0.0
20/07:00pm 17.9 13.7 13.6 76 2.5 S 28 39 15 21 1012.2 1011.1 0.0
20/06:30pm 18.4 13.4 13.5 73 2.8 SSE 32 39 17 21 1012.0 1010.9 0.0
20/06:08pm 18.6 13.5 13.7 73 2.8 SSE 33 54 18 29 1011.6 1010.4 0.0
20/06:00pm 18.5 13.0 13.6 73 2.8 S 35 46 19 25 1011.2 1010.0 0.0
20/05:30pm 19.9 14.1 13.8 68 3.6 SSE 37 54 20 29 1010.5 1009.3 0.0
20/05:00pm 19.9 13.6 13.6 67 3.7 S 39 50 21 27 1010.1 1008.9 0.0
20/04:30pm 21.9 15.4 13.0 57 5.2 S 39 57 21 31 1009.3 1008.1 0.0
20/04:07pm 23.1 16.7 13.3 54 5.7 S 39 57 21 31 1008.7 1007.5 0.0
20/04:00pm 22.9 16.0 12.8 53 5.9 SSE 41 56 22 30 1008.6 1007.4 0.0
20/03:30pm 24.2 17.6 13.7 52 6.2 S 41 54 22 29 1008.4 1007.2 0.0
20/03:00pm 24.1 18.0 15.1 57 5.5 S 41 61 22 33 1008.0 1006.8 0.0
20/02:30pm 24.1 17.8 15.6 59 5.2 S 43 61 23 33 1007.2 1006.0 0.0
20/02:01pm 24.3 16.7 15.8 59 5.2 S 50 69 27 37 1006.8 1005.6 0.0
20/02:00pm 24.6 17.1 16.1 59 5.3 S 50 65 27 35 1006.8 1005.6 0.0
20/01:30pm 28.9 23.2 17.7 50 7.2 SSW 44 59 24 32 1005.9 1004.6 0.0
20/01:19pm 29.5 25.3 16.3 45 8.3 SSW 33 52 18 28 1005.6 1004.4 0.0
20/01:00pm 32.2 29.0 15.2 35 10.7 SW 26 43 14 23 1005.4 1004.2 0.0
20/12:30pm 32.3 30.3 17.4 41 9.6 SW 24 35 13 19 1005.6 1004.4 0.0
20/12:00pm 32.3 30.0 15.7 36 10.5 SW 22 32 12 17 1005.9 1004.6 0.0
20/11:30am 31.5 29.9 15.9 39 9.8 SSW 19 32 10 17 1006.0 1004.7 0.0
20/11:00am 27.6 25.6 17.5 54 6.5 SSW 24 35 13 19 1006.7 1005.5 0.0
20/10:30am 25.7 23.6 14.8 51 6.6 WSW 19 32 10 17 1007.2 1006.0 0.0
20/10:00am 29.9 28.6 14.8 39 9.3 NNW 15 22 8 12 1007.0 1005.8 0.0
20/09:30am 30.8 30.3 14.8 37 9.9 N 11 20 6 11 1007.2 1006.0 0.0
20/09:00am 30.4 30.1 13.2 35 10.4 N 7 15 4 8 1007.7 1006.5 0.0
20/08:30am 28.5 28.0 12.8 38 9.3 NNE 7 11 4 6 1008.4 1007.2 0.0
20/08:00am 27.0 25.4 11.5 38 9.0 ENE 11 17 6 9 1009.0 1007.8 0.0
20/07:30am 24.0 22.6 11.0 44 7.4 NE 9 13 5 7 1009.3 1008.1 0.0
20/07:00am 22.5 21.2 11.3 49 6.3 ENE 9 15 5 8 1009.5 1008.3 0.0
20/06:30am 20.8 19.4 10.9 53 5.5 E 9 13 5 7 1009.6 1008.4 0.0
20/06:00am 19.4 18.5 11.4 60 4.5 ESE 7 9 4 5 1009.8 1008.6 0.0
20/05:30am 18.0 17.4 11.6 66 3.6 ESE 6 9 3 5 1009.9 1008.7 0.0
20/05:00am 16.7 15.8 10.8 68 3.2 SE 6 9 3 5 1009.7 1008.5 0.0
20/04:30am 16.9 15.4 10.7 67 3.4 SE 9 13 5 7 1009.8 1008.6 0.0
20/04:00am 17.4 15.6 11.0 66 3.5 SE 11 15 6 8 1009.8 1008.6 0.0
20/03:30am 17.4 15.6 11.0 66 3.5 SSE 11 15 6 8 1009.9 1008.7 0.0
20/03:00am 17.8 16.1 11.1 65 3.7 SE 11 13 6 7 1010.1 1008.9 0.0
20/02:30am 17.7 16.8 10.6 63 3.9 ESE 6 7 3 4 1010.1 1008.9 0.0
20/02:00am 18.7 17.3 10.8 60 4.3 SSE 9 11 5 6 1010.0 1008.8 0.0
20/01:30am 18.6 17.5 10.7 60 4.3 SSE 7 9 4 5 1010.2 1009.0 0.0
20/01:00am 18.8 17.3 10.4 58 4.6 SE 9 11 5 6 1010.3 1009.1 0.0
20/12:30am 19.3 18.2 10.0 55 5.0 E 6 9 3 5 1010.5 1009.3 0.0
20/12:00am 19.8 17.3 9.7 52 5.5 ESE 13 19 7 10 1010.7 1009.5 0.0
 
Date/Time
WST
Temp
°C
App
Temp
°C
Dew
Point
Rel
Hum
%
Delta-T
°C
Wind Press
QNH
hPa
Press
MSL
hPa
Rain
since 9 am
mm
Dir
 
Spd
km/h
Gust
km/h
Spd
kts
Gust
kts
19/11:30pm 20.4 18.2 9.3 49 6.0 ESE 11 19 6 10 1011.5 1010.3 0.0
19/11:00pm 20.5 17.4 8.8 47 6.3 ESE 15 20 8 11 1011.5 1010.3 0.0
19/10:30pm 20.9 17.3 8.5 45 6.6 ESE 17 22 9 12 1012.7 1011.5 0.0
19/10:00pm 21.3 18.2 8.9 45 6.7 ESE 15 20 8 11 1012.7 1011.5 0.0
19/09:30pm 22.0 18.7 9.5 45 6.8 ESE 17 26 9 14 1012.0 1010.9 0.0
19/09:00pm 22.5 18.8 9.3 43 7.2 ESE 19 26 10 14 1012.1 1011.0 0.0
19/08:30pm 23.4 18.5 8.3 38 8.1 ESE 24 33 13 18 1011.3 1010.1 0.0
19/08:00pm 24.7 19.3 7.8 34 9.1 ESE 26 39 14 21 1010.9 1009.7 0.0
19/07:30pm 26.1 20.2 7.7 31 10.0 ESE 28 39 15 21 1010.6 1009.4 0.0
19/07:00pm 27.8 21.0 7.6 28 11.0 ESE 33 44 18 24 1010.3 1009.1 0.0
19/06:30pm 29.8 23.0 7.7 25 12.2 SE 33 44 18 24 1010.0 1008.8 0.0
19/06:00pm 32.0 24.8 7.6 22 13.6 SE 35 46 19 25 1009.5 1008.3 0.0
19/05:51pm 33.1 28.6 7.1 20 14.4 SE 20 44 11 24 1009.4 1008.2 0.0
19/05:30pm 35.6 32.0 3.0 13 17.2 ESE 11 20 6 11 1009.2 1008.0 0.0
19/05:00pm 35.8 32.2 3.1 13 17.3 NE 11 19 6 10 1009.5 1008.3 0.0
19/04:30pm 35.6 31.6 3.0 13 17.2 NNE 13 19 7 10 1010.0 1008.8 0.0
19/04:00pm 36.1 33.5 3.3 13 17.4 S 6 11 3 6 1010.4 1009.2 0.0
19/03:30pm 35.9 32.0 3.2 13 17.3 E 13 24 7 13 1010.9 1009.7 0.0
19/03:00pm 36.0 32.5 3.3 13 17.4 NNE 11 22 6 12 1011.5 1010.3 0.0
19/02:30pm 36.5 33.8 3.7 13 17.6 S 7 15 4 8 1012.0 1010.9 0.0
19/02:00pm 34.9 32.0 2.4 13 16.9 N 7 19 4 10 1012.6 1011.4 0.0
19/01:30pm 34.8 32.4 2.3 13 16.9 N 4 15 2 8 1013.1 1011.9 0.0
19/01:00pm 34.1 30.7 1.8 13 16.6 NNE 9 24 5 13 1013.7 1012.5 0.0
19/12:30pm 33.5 28.8 3.3 15 15.8 NE 17 30 9 16 1014.2 1013.0 0.0
19/12:00pm 33.9 31.4 4.6 16 15.7 ENE 7 17 4 9 1014.8 1013.7 0.0
19/11:30am 32.5 28.0 4.3 17 14.9 ENE 17 30 9 16 1015.4 1014.3 0.0
19/11:00am 32.6 27.9 5.2 18 14.7 NE 19 32 10 17 1015.9 1014.7 0.0
19/10:30am 30.6 26.0 5.8 21 13.3 ENE 19 26 10 14 1016.4 1015.2 0.0
19/10:00am 29.9 25.6 7.2 24 12.4 ENE 19 32 10 17 1016.7 1015.5 0.0
19/09:30am 28.6 25.0 8.3 28 11.2 ENE 17 24 9 13 1017.0 1015.8 0.0
19/09:00am 26.3 22.2 7.8 31 10.0 NE 19 26 10 14 1017.4 1016.3 0.0

Other Formats:

Comma delimited format used in spreadsheet applications
http://www.bom.gov.au/fwo/IDW60801/IDW60801.94628.axf

JavaScript Object Notation format (JSON) in row-major order
http://www.bom.gov.au/fwo/IDW60801/IDW60801.94628.json